Time;durP1;ratioP1;P1;durP2;ratioP2;P2;SDS_P1;SDS_P2;PMS_P1;PMS_P2;Temp;Humidity;BMP_temperature;BMP_pressure;BME280_temperature;BME280_humidity;BME280_pressure;Samples;Min_cycle;Max_cycle;Signal;HPM_P1;HPM_P2
2021/09/04 00:00:31;;;;;;;28.65;15.35;;;14.60;99.90;;;;;;5050355;28;20024;-46
2021/09/04 00:02:56;;;;;;;31.50;14.50;;;14.60;99.90;;;;;;5051938;28;20025;-46
2021/09/04 00:05:22;;;;;;;30.02;14.75;;;14.60;99.90;;;;;;5051878;28;20017;-47
2021/09/04 00:07:48;;;;;;;30.08;14.85;;;14.50;99.90;;;;;;5051111;28;20331;-46
2021/09/04 00:10:13;;;;;;;24.27;14.43;;;14.50;99.90;;;;;;5051636;28;20283;-46
2021/09/04 00:12:39;;;;;;;27.52;14.40;;;14.50;99.90;;;;;;5055347;28;20111;-47
2021/09/04 00:15:06;;;;;;;27.88;13.90;;;14.50;99.90;;;;;;5063476;28;20566;-46
2021/09/04 00:17:32;;;;;;;22.98;13.68;;;14.50;99.90;;;;;;5070983;28;20041;-49
2021/09/04 00:19:57;;;;;;;23.42;14.00;;;14.40;99.90;;;;;;5070480;28;20482;-46
2021/09/04 00:22:23;;;;;;;22.90;14.98;;;14.40;99.90;;;;;;5034331;28;20021;-47
2021/09/04 00:24:48;;;;;;;29.55;14.18;;;14.40;99.90;;;;;;5031924;28;20383;-46
2021/09/04 00:27:14;;;;;;;26.48;15.02;;;14.40;99.90;;;;;;5030526;28;20479;-46
2021/09/04 00:29:39;;;;;;;33.60;14.88;;;14.30;99.90;;;;;;5031309;28;20163;-46
2021/09/04 00:32:06;;;;;;;25.55;14.80;;;14.30;99.90;;;;;;5031409;28;20504;-46
2021/09/04 00:34:31;;;;;;;25.45;13.02;;;14.30;99.90;;;;;;5031526;28;20482;-47
2021/09/04 00:36:57;;;;;;;22.52;14.23;;;14.30;99.90;;;;;;5030882;28;20060;-46
2021/09/04 00:39:22;;;;;;;25.00;13.45;;;14.30;99.90;;;;;;5029944;28;20260;-46
2021/09/04 00:41:48;;;;;;;25.35;14.77;;;14.30;99.90;;;;;;5031852;28;20074;-47
2021/09/04 00:44:20;;;;;;;28.63;14.65;;;14.40;99.90;;;;;;5062922;28;20096;-46
2021/09/04 00:46:46;;;;;;;30.85;15.68;;;14.30;99.90;;;;;;5070282;28;20099;-46
2021/09/04 00:49:12;;;;;;;32.90;17.05;;;14.40;99.90;;;;;;5070990;28;20104;-46
2021/09/04 00:51:38;;;;;;;29.70;15.05;;;14.40;99.90;;;;;;5070756;28;20029;-47
2021/09/04 00:54:05;;;;;;;30.92;16.85;;;14.40;99.90;;;;;;5070983;28;20039;-46
2021/09/04 00:56:30;;;;;;;31.75;16.35;;;14.40;99.90;;;;;;5070183;28;20187;-43
2021/09/04 00:58:56;;;;;;;34.22;16.02;;;14.40;99.90;;;;;;5070653;28;20032;-44
2021/09/04 01:01:21;;;;;;;33.10;17.17;;;14.40;99.90;;;;;;5070716;28;20057;-43
2021/09/04 01:03:47;;;;;;;34.40;16.80;;;14.30;99.90;;;;;;5070568;28;20048;-44
2021/09/04 01:06:15;;;;;;;41.00;17.20;;;14.30;99.90;;;;;;5070336;28;20028;-45
2021/09/04 01:08:42;;;;;;;28.88;15.70;;;14.30;99.90;;;;;;5070470;28;20613;-45
2021/09/04 01:11:09;;;;;;;32.15;14.77;;;14.30;99.90;;;;;;5069756;28;20032;-44
2021/09/04 01:13:38;;;;;;;39.33;16.83;;;14.30;99.90;;;;;;5056382;28;20025;-44
2021/09/04 01:16:03;;;;;;;35.03;14.95;;;14.30;99.90;;;;;;5069703;28;20462;-43
2021/09/04 01:18:29;;;;;;;33.97;15.35;;;14.30;99.90;;;;;;5070010;28;20083;-45
2021/09/04 01:20:55;;;;;;;32.17;15.35;;;14.20;99.90;;;;;;5070387;28;20029;-47
2021/09/04 01:23:21;;;;;;;26.42;14.68;;;14.20;99.90;;;;;;5070311;28;20107;-47
2021/09/04 01:25:55;;;;;;;28.08;15.38;;;14.20;99.90;;;;;;5070664;28;20059;-44
2021/09/04 01:28:21;;;;;;;34.25;18.27;;;14.20;99.90;;;;;;5068180;28;20427;-44
2021/09/04 01:30:47;;;;;;;35.72;17.42;;;14.10;99.90;;;;;;5070424;28;20036;-46
2021/09/04 01:33:13;;;;;;;35.92;16.95;;;14.00;99.90;;;;;;5070677;28;20024;-46
2021/09/04 01:35:39;;;;;;;30.83;17.38;;;14.00;99.90;;;;;;5069056;28;20424;-45
2021/09/04 01:38:04;;;;;;;30.15;16.52;;;14.00;99.90;;;;;;5069689;28;20064;-44
2021/09/04 01:40:30;;;;;;;26.77;15.98;;;13.90;99.90;;;;;;5069878;28;20385;-44
2021/09/04 01:42:55;;;;;;;38.03;17.88;;;13.90;99.90;;;;;;5061059;28;20021;-45
2021/09/04 01:45:21;;;;;;;39.88;18.30;;;13.80;99.90;;;;;;5062297;28;20091;-46
2021/09/04 01:47:47;;;;;;;29.05;17.40;;;13.70;99.90;;;;;;5069503;28;20543;-44
2021/09/04 01:50:14;;;;;;;37.03;16.88;;;13.70;99.90;;;;;;5070034;28;20029;-45
2021/09/04 01:52:44;;;;;;;33.20;17.02;;;13.70;99.90;;;;;;5070196;28;20028;-45
2021/09/04 01:55:16;;;;;;;33.88;17.83;;;13.60;99.90;;;;;;5070053;28;20040;-46
2021/09/04 01:57:42;;;;;;;35.22;17.02;;;13.60;99.90;;;;;;5068907;28;20060;-45
2021/09/04 02:00:10;;;;;;;35.10;16.75;;;13.60;99.90;;;;;;5069632;28;20071;-45
2021/09/04 02:02:36;;;;;;;30.35;15.98;;;13.60;99.90;;;;;;5069449;28;20025;-45
2021/09/04 02:05:02;;;;;;;31.77;15.82;;;13.60;99.90;;;;;;5069565;28;20220;-45
2021/09/04 02:07:28;;;;;;;34.75;15.68;;;13.60;99.90;;;;;;5068772;28;20017;-48
2021/09/04 02:09:54;;;;;;;30.98;16.65;;;13.60;99.90;;;;;;5069400;28;20047;-45
2021/09/04 02:12:19;;;;;;;36.75;17.65;;;13.50;99.90;;;;;;5053207;28;20209;-45
2021/09/04 02:14:45;;;;;;;28.77;14.63;;;13.50;99.90;;;;;;5054293;28;20100;-45
2021/09/04 02:17:10;;;;;;;23.92;13.82;;;13.50;99.90;;;;;;5049207;28;20029;-45
2021/09/04 02:19:36;;;;;;;28.27;15.57;;;13.50;99.90;;;;;;5049300;28;20040;-45
2021/09/04 02:22:02;;;;;;;29.08;15.05;;;13.50;99.90;;;;;;5048185;28;20090;-45
2021/09/04 02:24:29;;;;;;;28.90;14.70;;;13.60;99.90;;;;;;5047919;28;20108;-45
2021/09/04 02:26:55;;;;;;;29.30;14.18;;;13.60;99.90;;;;;;5048291;28;20435;-44
2021/09/04 02:29:20;;;;;;;22.60;13.25;;;13.60;99.90;;;;;;5049371;28;20120;-45
2021/09/04 02:31:46;;;;;;;29.55;15.52;;;13.60;99.90;;;;;;5047655;28;20386;-45
2021/09/04 02:34:11;;;;;;;25.42;13.77;;;13.60;99.90;;;;;;5048942;28;20041;-45
2021/09/04 02:36:38;;;;;;;24.67;13.77;;;13.50;99.90;;;;;;5048077;28;20071;-46
2021/09/04 02:39:04;;;;;;;27.33;14.43;;;13.50;99.90;;;;;;5047703;28;20566;-45
2021/09/04 02:41:29;;;;;;;26.50;13.57;;;13.50;99.90;;;;;;5047721;28;20100;-45
2021/09/04 02:43:55;;;;;;;20.55;11.80;;;13.50;99.90;;;;;;5056312;28;20033;-45
2021/09/04 02:46:20;;;;;;;20.77;11.68;;;13.50;99.90;;;;;;5068158;28;20386;-45
2021/09/04 02:48:46;;;;;;;23.67;12.63;;;13.50;99.90;;;;;;5068499;28;20102;-45
2021/09/04 02:51:11;;;;;;;24.73;12.93;;;13.50;99.90;;;;;;5068498;28;20086;-45
2021/09/04 02:53:37;;;;;;;27.25;12.70;;;13.50;99.90;;;;;;5067216;28;20102;-51
2021/09/04 02:56:02;;;;;;;17.52;11.18;;;13.50;99.90;;;;;;5068512;28;20035;-45
2021/09/04 02:58:28;;;;;;;26.45;13.80;;;13.50;99.90;;;;;;5068102;28;20031;-49
2021/09/04 03:00:53;;;;;;;21.40;13.57;;;13.50;99.90;;;;;;5068526;28;20031;-45
2021/09/04 03:03:19;;;;;;;20.52;12.30;;;13.50;99.90;;;;;;5068691;28;20316;-45
2021/09/04 03:05:45;;;;;;;19.77;12.40;;;13.50;99.90;;;;;;5068539;28;20050;-48
2021/09/04 03:08:11;;;;;;;25.50;12.68;;;13.50;99.90;;;;;;5067959;28;20276;-45
2021/09/04 03:10:36;;;;;;;20.05;11.70;;;13.50;99.90;;;;;;5068659;28;20033;-44
2021/09/04 03:13:02;;;;;;;17.80;11.65;;;13.60;99.90;;;;;;5062190;28;20044;-44
2021/09/04 03:15:27;;;;;;;25.90;11.93;;;13.60;99.90;;;;;;5062723;28;20584;-44
2021/09/04 03:17:53;;;;;;;19.75;11.32;;;13.60;99.90;;;;;;5067756;28;20032;-45
2021/09/04 03:20:18;;;;;;;21.55;12.40;;;13.60;99.90;;;;;;5066872;28;20438;-50
2021/09/04 03:22:44;;;;;;;20.77;12.60;;;13.70;99.90;;;;;;5068193;28;20021;-44
2021/09/04 03:25:10;;;;;;;20.00;12.25;;;13.60;99.90;;;;;;5066734;28;20021;-47
2021/09/04 03:27:36;;;;;;;16.98;11.98;;;13.70;99.90;;;;;;5065868;28;20515;-46
2021/09/04 03:30:03;;;;;;;15.93;10.73;;;13.70;99.90;;;;;;5068507;28;20107;-45
2021/09/04 03:32:28;;;;;;;21.60;11.95;;;13.70;99.90;;;;;;5067770;28;20030;-45
2021/09/04 03:34:55;;;;;;;21.58;12.45;;;13.70;99.90;;;;;;5067817;28;20471;-51
2021/09/04 03:37:21;;;;;;;23.48;12.90;;;13.70;99.90;;;;;;5067788;28;20270;-45
2021/09/04 03:39:47;;;;;;;20.70;11.68;;;13.70;99.90;;;;;;5068274;28;20021;-46
2021/09/04 03:42:13;;;;;;;19.85;11.05;;;13.70;99.90;;;;;;5059242;28;20088;-45
2021/09/04 03:44:38;;;;;;;17.55;11.32;;;13.70;99.90;;;;;;5042111;28;20043;-46
2021/09/04 03:47:04;;;;;;;20.33;11.98;;;13.70;99.90;;;;;;5038977;28;20119;-47
2021/09/04 03:49:30;;;;;;;22.17;11.77;;;13.70;99.90;;;;;;5027875;28;20403;-44
2021/09/04 03:51:56;;;;;;;18.25;11.27;;;13.70;99.90;;;;;;5028320;28;20041;-44
2021/09/04 03:54:21;;;;;;;17.05;10.82;;;13.70;99.90;;;;;;5031735;28;20036;-45
2021/09/04 03:56:47;;;;;;;17.98;9.40;;;13.70;99.90;;;;;;5037371;28;20127;-46
2021/09/04 03:59:12;;;;;;;24.75;9.80;;;13.70;99.90;;;;;;5037028;28;20060;-45
2021/09/04 04:01:38;;;;;;;19.33;10.13;;;13.70;99.90;;;;;;5032580;28;20033;-44
2021/09/04 04:04:04;;;;;;;15.30;8.35;;;13.70;99.90;;;;;;5038046;28;20425;-44
2021/09/04 04:06:30;;;;;;;15.27;8.82;;;13.70;99.90;;;;;;5035112;28;20036;-45
2021/09/04 04:08:56;;;;;;;13.00;8.73;;;13.70;99.90;;;;;;5037899;28;20394;-47
2021/09/04 04:11:22;;;;;;;11.98;8.85;;;13.70;99.90;;;;;;5037786;28;20022;-44
2021/09/04 04:13:48;;;;;;;17.17;8.88;;;13.70;99.90;;;;;;5039027;28;20036;-44
2021/09/04 04:16:13;;;;;;;18.25;9.25;;;13.70;99.90;;;;;;5041579;28;20464;-45
2021/09/04 04:18:39;;;;;;;13.07;7.15;;;13.70;99.90;;;;;;5026988;28;20033;-45
2021/09/04 04:21:04;;;;;;;10.35;5.80;;;13.70;99.90;;;;;;5027572;28;20124;-45
2021/09/04 04:23:30;;;;;;;8.30;5.07;;;13.70;99.90;;;;;;5027891;28;20029;-46
2021/09/04 04:25:55;;;;;;;13.38;5.13;;;13.70;99.90;;;;;;5045229;28;20400;-45
2021/09/04 04:28:21;;;;;;;17.00;4.95;;;13.70;99.90;;;;;;5060590;28;20458;-45
2021/09/04 04:30:46;;;;;;;10.07;4.57;;;13.70;99.90;;;;;;5066225;28;20561;-47
2021/09/04 04:33:12;;;;;;;10.23;5.00;;;13.70;99.90;;;;;;5067542;28;20035;-46
2021/09/04 04:35:39;;;;;;;16.30;4.88;;;13.70;99.90;;;;;;5067367;28;20025;-44
2021/09/04 04:38:04;;;;;;;6.82;4.40;;;13.70;99.90;;;;;;5056306;28;20508;-44
2021/09/04 04:40:30;;;;;;;12.07;4.65;;;13.70;99.90;;;;;;5051589;28;20037;-44
2021/09/04 04:42:55;;;;;;;9.80;4.47;;;13.80;99.90;;;;;;5045379;28;20033;-45
2021/09/04 04:45:21;;;;;;;11.35;4.47;;;13.80;99.90;;;;;;5061297;28;20506;-45
2021/09/04 04:47:47;;;;;;;7.55;4.32;;;13.80;99.90;;;;;;5053561;28;20124;-47
2021/09/04 04:50:12;;;;;;;8.35;4.47;;;13.80;99.90;;;;;;5067288;28;20377;-44
2021/09/04 04:52:39;;;;;;;9.45;4.05;;;13.90;99.90;;;;;;5056663;28;20082;-48
2021/09/04 04:55:05;;;;;;;8.50;3.25;;;13.80;99.90;;;;;;5061328;28;20021;-44
2021/09/04 04:57:31;;;;;;;12.85;3.75;;;13.80;99.90;;;;;;5062804;28;20555;-44
2021/09/04 04:59:56;;;;;;;9.70;4.40;;;13.80;99.90;;;;;;5053719;28;20037;-44
2021/09/04 05:02:22;;;;;;;9.90;4.38;;;13.80;99.90;;;;;;5067068;28;20028;-47
2021/09/04 05:04:47;;;;;;;8.75;3.63;;;13.80;99.90;;;;;;5057591;28;20094;-44
2021/09/04 05:07:13;;;;;;;5.40;3.88;;;13.80;99.90;;;;;;5059227;28;20017;-44
2021/09/04 05:09:38;;;;;;;10.75;5.15;;;13.80;99.90;;;;;;5064652;28;20029;-44
2021/09/04 05:12:04;;;;;;;9.07;4.28;;;13.80;99.90;;;;;;5053061;28;20507;-44
2021/09/04 05:14:30;;;;;;;10.00;4.25;;;13.90;99.90;;;;;;5056402;28;20108;-46
2021/09/04 05:16:56;;;;;;;8.00;3.78;;;13.90;99.90;;;;;;5059410;28;20047;-46
2021/09/04 05:19:22;;;;;;;13.02;5.15;;;13.90;99.90;;;;;;5058247;28;20033;-44
2021/09/04 05:21:47;;;;;;;8.38;4.43;;;13.90;99.90;;;;;;5064308;28;20035;-44
2021/09/04 05:24:13;;;;;;;10.93;4.22;;;13.90;99.90;;;;;;5053281;28;20531;-45
2021/09/04 05:26:38;;;;;;;9.82;4.50;;;13.90;99.90;;;;;;5063657;28;20036;-45
2021/09/04 05:29:04;;;;;;;9.57;4.60;;;13.90;99.90;;;;;;5059210;28;20143;-48
2021/09/04 05:31:29;;;;;;;5.55;3.95;;;13.90;99.90;;;;;;5057460;28;20032;-45
2021/09/04 05:33:55;;;;;;;9.13;3.55;;;14.00;99.90;;;;;;5066244;28;20029;-45
2021/09/04 05:36:20;;;;;;;9.82;4.05;;;14.00;99.90;;;;;;5052666;28;20386;-45
2021/09/04 05:38:46;;;;;;;7.55;4.43;;;14.00;99.90;;;;;;5061575;28;20091;-45
2021/09/04 05:41:11;;;;;;;15.18;4.78;;;14.00;99.90;;;;;;5060100;28;20036;-45
2021/09/04 05:43:37;;;;;;;14.48;4.55;;;14.10;99.90;;;;;;5057068;28;20452;-45
2021/09/04 05:46:03;;;;;;;7.80;3.83;;;14.00;99.90;;;;;;5056042;28;20064;-47
2021/09/04 05:48:28;;;;;;;15.60;4.15;;;14.00;99.90;;;;;;5064916;28;20017;-46
2021/09/04 05:50:54;;;;;;;12.10;4.45;;;14.00;99.90;;;;;;5057846;28;20103;-45
2021/09/04 05:53:20;;;;;;;9.13;4.15;;;14.00;99.90;;;;;;5057075;28;20025;-45
2021/09/04 05:55:45;;;;;;;6.85;3.78;;;14.00;99.90;;;;;;5043454;28;20040;-46
2021/09/04 05:58:11;;;;;;;8.82;4.35;;;14.10;99.90;;;;;;5036960;28;20047;-45
2021/09/04 06:00:36;;;;;;;17.67;4.18;;;14.20;99.90;;;;;;5038051;28;20399;-45
2021/09/04 06:03:02;;;;;;;10.70;4.20;;;14.20;99.90;;;;;;5039251;28;20545;-47
2021/09/04 06:05:29;;;;;;;6.85;3.55;;;14.20;99.90;;;;;;5039162;28;20013;-45
2021/09/04 06:07:55;;;;;;;7.88;3.90;;;14.30;99.90;;;;;;5038033;28;20029;-45
2021/09/04 06:10:20;;;;;;;11.18;4.22;;;14.30;99.90;;;;;;5038802;28;20021;-45
2021/09/04 06:12:46;;;;;;;8.60;3.80;;;14.30;99.90;;;;;;5040079;28;20040;-46
2021/09/04 06:15:12;;;;;;;11.05;4.25;;;14.30;99.90;;;;;;5043434;28;20025;-45
2021/09/04 06:17:37;;;;;;;10.77;5.90;;;14.40;99.90;;;;;;5036758;28;20655;-45
2021/09/04 06:20:04;;;;;;;16.13;6.28;;;14.40;99.90;;;;;;5036871;28;20442;-46
2021/09/04 06:22:29;;;;;;;11.95;4.90;;;14.40;99.90;;;;;;5039794;28;20418;-46
2021/09/04 06:24:55;;;;;;;12.38;5.72;;;14.40;99.90;;;;;;5038395;28;20035;-45
2021/09/04 06:27:20;;;;;;;15.25;5.95;;;14.50;99.90;;;;;;5042810;28;20040;-48
2021/09/04 06:29:46;;;;;;;11.38;5.70;;;14.60;99.90;;;;;;5048828;28;20068;-47
2021/09/04 06:32:11;;;;;;;12.70;5.72;;;14.60;99.90;;;;;;5046347;28;20087;-45
2021/09/04 06:34:37;;;;;;;12.10;5.63;;;14.70;99.90;;;;;;5050530;28;20044;-45
2021/09/04 06:37:02;;;;;;;11.07;5.97;;;14.70;99.90;;;;;;5049916;28;20097;-45
2021/09/04 06:39:28;;;;;;;10.13;6.60;;;14.70;99.90;;;;;;5045975;28;20039;-48
2021/09/04 06:41:53;;;;;;;12.85;7.32;;;14.80;99.90;;;;;;5049810;28;20037;-46
2021/09/04 06:44:19;;;;;;;11.15;7.43;;;14.80;99.90;;;;;;5052833;28;20195;-44
2021/09/04 06:46:44;;;;;;;12.65;7.93;;;14.90;99.90;;;;;;5066054;28;20031;-45
2021/09/04 06:49:10;;;;;;;15.77;8.20;;;14.90;99.90;;;;;;5051860;28;20024;-45
2021/09/04 06:51:35;;;;;;;10.35;7.55;;;14.90;99.90;;;;;;5045195;28;20104;-45
2021/09/04 06:54:01;;;;;;;10.60;7.55;;;14.90;99.90;;;;;;5049034;28;20067;-44
2021/09/04 06:56:26;;;;;;;12.73;6.88;;;14.90;99.90;;;;;;5031891;28;20035;-45
2021/09/04 06:58:52;;;;;;;10.30;7.50;;;14.90;99.90;;;;;;5029372;28;20025;-45
2021/09/04 07:01:18;;;;;;;10.98;7.00;;;15.00;99.90;;;;;;5028990;28;20095;-46
2021/09/04 07:03:44;;;;;;;11.45;7.38;;;15.00;99.90;;;;;;5029814;28;20025;-46
2021/09/04 07:06:09;;;;;;;14.43;8.15;;;14.90;99.90;;;;;;5029673;28;20022;-45
2021/09/04 07:08:35;;;;;;;13.25;8.27;;;14.90;99.90;;;;;;5028736;28;20049;-47
2021/09/04 07:11:01;;;;;;;16.55;8.43;;;14.90;99.90;;;;;;5028262;28;20036;-45
2021/09/04 07:13:26;;;;;;;9.63;7.10;;;14.80;99.90;;;;;;5041215;28;20058;-45
2021/09/04 07:15:52;;;;;;;12.30;6.80;;;14.80;99.90;;;;;;5059954;28;20512;-47
2021/09/04 07:18:20;;;;;;;14.05;6.10;;;14.80;99.90;;;;;;5069101;28;20025;-45
2021/09/04 07:20:46;;;;;;;13.05;6.18;;;14.80;99.90;;;;;;5069318;28;20036;-46
2021/09/04 07:23:11;;;;;;;14.75;6.72;;;14.80;99.90;;;;;;5069396;28;20035;-45
2021/09/04 07:25:37;;;;;;;10.65;6.35;;;14.80;99.90;;;;;;5068272;28;20616;-47
2021/09/04 07:28:04;;;;;;;12.13;5.85;;;14.80;99.90;;;;;;5055226;28;20060;-45
2021/09/04 07:30:30;;;;;;;9.65;6.05;;;14.80;99.90;;;;;;5040060;28;20041;-46
2021/09/04 07:32:55;;;;;;;12.05;5.93;;;14.80;99.90;;;;;;5028834;28;20371;-45
2021/09/04 07:35:21;;;;;;;10.40;6.32;;;14.80;99.90;;;;;;5028950;28;20655;-45
2021/09/04 07:37:46;;;;;;;15.15;6.97;;;14.70;99.90;;;;;;5033929;28;20711;-48
2021/09/04 07:40:12;;;;;;;16.20;6.65;;;14.80;99.90;;;;;;5040226;28;20033;-45
2021/09/04 07:42:38;;;;;;;12.93;6.57;;;14.60;99.90;;;;;;5038435;28;20029;-45
2021/09/04 07:45:04;;;;;;;10.15;6.13;;;14.50;99.90;;;;;;5056685;28;20021;-45
2021/09/04 07:47:29;;;;;;;10.90;5.85;;;14.60;99.90;;;;;;5065693;28;20028;-46
2021/09/04 07:49:55;;;;;;;11.85;6.00;;;14.60;99.90;;;;;;5057577;28;20458;-47
2021/09/04 07:52:20;;;;;;;8.32;5.60;;;14.60;99.90;;;;;;5033501;28;20033;-45
2021/09/04 07:54:46;;;;;;;6.70;5.25;;;14.60;99.90;;;;;;5030116;28;20030;-45
2021/09/04 07:57:11;;;;;;;11.55;5.57;;;14.60;99.90;;;;;;5035527;28;20025;-44
2021/09/04 07:59:37;;;;;;;10.70;4.75;;;14.70;99.90;;;;;;5037183;28;20025;-45
2021/09/04 08:02:02;;;;;;;8.43;5.15;;;14.80;99.90;;;;;;5037070;28;20052;-45
2021/09/04 08:04:28;;;;;;;9.32;4.75;;;14.80;99.90;;;;;;5036302;28;20118;-45
2021/09/04 08:06:53;;;;;;;10.23;5.25;;;14.90;99.90;;;;;;5037476;28;20024;-45
2021/09/04 08:09:19;;;;;;;12.65;4.65;;;14.90;99.90;;;;;;5038236;28;20021;-46
2021/09/04 08:11:44;;;;;;;12.63;4.65;;;15.00;99.90;;;;;;5028421;28;20297;-46
2021/09/04 08:14:10;;;;;;;8.45;3.90;;;15.00;99.90;;;;;;5039615;28;20028;-45
2021/09/04 08:16:36;;;;;;;11.38;4.18;;;15.10;99.90;;;;;;5034082;28;20043;-45
2021/09/04 08:19:02;;;;;;;9.55;4.28;;;15.10;99.90;;;;;;5028012;28;20290;-45
2021/09/04 08:21:28;;;;;;;8.02;3.83;;;15.20;99.90;;;;;;5031111;28;20391;-45
2021/09/04 08:23:53;;;;;;;10.98;4.63;;;15.30;99.90;;;;;;5031096;28;20033;-46
2021/09/04 08:26:18;;;;;;;6.82;4.07;;;15.40;99.90;;;;;;5030241;28;20509;-47
2021/09/04 08:28:44;;;;;;;15.57;5.20;;;15.40;99.90;;;;;;5026761;28;20502;-45
2021/09/04 08:31:10;;;;;;;11.05;4.55;;;15.40;99.90;;;;;;5039194;28;20083;-45
2021/09/04 08:33:35;;;;;;;9.38;4.20;;;15.40;99.90;;;;;;5040030;28;20043;-46
2021/09/04 08:36:01;;;;;;;6.82;4.55;;;15.50;99.90;;;;;;5041526;28;20095;-47
2021/09/04 08:38:26;;;;;;;10.40;4.32;;;15.50;99.90;;;;;;5040134;28;20038;-45
2021/09/04 08:40:54;;;;;;;7.32;4.03;;;15.60;99.90;;;;;;5030657;28;20109;-48
2021/09/04 08:43:21;;;;;;;10.95;4.35;;;15.60;99.90;;;;;;5040134;28;20009;-45
2021/09/04 08:45:46;;;;;;;8.48;4.40;;;15.70;99.90;;;;;;5053508;28;20406;-46
2021/09/04 08:48:13;;;;;;;8.48;4.25;;;15.80;99.90;;;;;;5049770;28;20033;-45
2021/09/04 08:50:39;;;;;;;11.80;4.15;;;15.90;99.90;;;;;;5050391;28;20504;-45
2021/09/04 08:53:05;;;;;;;9.15;4.40;;;16.00;99.90;;;;;;5043649;28;20163;-45
2021/09/04 08:55:30;;;;;;;11.45;4.40;;;16.00;99.90;;;;;;5050312;28;20036;-45
2021/09/04 08:57:56;;;;;;;11.85;4.20;;;16.10;99.90;;;;;;5049484;28;20406;-46
2021/09/04 09:00:37;;;;;;;7.45;3.83;;;16.00;99.90;;;;;;5050200;28;20035;-46
2021/09/04 09:03:03;;;;;;;9.18;4.38;;;16.00;99.90;;;;;;5050364;28;20079;-46
2021/09/04 09:05:42;;;;;;;8.57;4.53;;;16.00;99.90;;;;;;5050285;28;20505;-45
2021/09/04 09:08:22;;;;;;;13.65;5.13;;;15.90;99.90;;;;;;5049689;28;20478;-46
2021/09/04 09:10:48;;;;;;;12.48;4.68;;;16.10;99.90;;;;;;5039825;28;20082;-45
2021/09/04 09:13:18;;;;;;;8.63;4.00;;;16.20;99.90;;;;;;5033861;28;20368;-46
2021/09/04 09:15:45;;;;;;;8.40;3.70;;;16.40;99.90;;;;;;5058754;28;20086;-45
2021/09/04 09:18:13;;;;;;;6.82;3.47;;;16.40;99.90;;;;;;5069271;28;20066;-45
2021/09/04 09:20:41;;;;;;;7.88;4.07;;;16.50;99.90;;;;;;5070299;28;20255;-48
2021/09/04 09:23:27;;;;;;;8.57;3.20;;;16.60;99.90;;;;;;5070359;28;20016;-46
2021/09/04 09:25:53;;;;;;;8.18;3.60;;;16.80;99.90;;;;;;5069532;28;20021;-45
2021/09/04 09:28:23;;;;;;;8.57;3.85;;;16.90;99.90;;;;;;5068813;28;20021;-46
2021/09/04 09:31:00;;;;;;;8.43;3.85;;;17.10;99.90;;;;;;5068720;28;20028;-45
2021/09/04 09:33:29;;;;;;;7.00;3.72;;;17.30;99.90;;;;;;5054322;28;20017;-45
2021/09/04 09:35:56;;;;;;;7.00;3.42;;;17.40;99.90;;;;;;5040472;28;20392;-46
2021/09/04 09:38:27;;;;;;;6.68;3.30;;;17.40;99.90;;;;;;5038036;28;20021;-45
2021/09/04 09:40:54;;;;;;;7.00;3.80;;;17.40;99.90;;;;;;5036801;28;20331;-48
2021/09/04 09:43:23;;;;;;;7.57;4.03;;;17.70;99.90;;;;;;5041598;28;20066;-46
2021/09/04 09:45:56;;;;;;;6.93;3.00;;;17.90;99.90;;;;;;5060993;28;20414;-48
2021/09/04 09:48:24;;;;;;;8.75;3.60;;;18.20;99.90;;;;;;5068556;28;20051;-46
2021/09/04 09:50:51;;;;;;;6.18;3.75;;;18.40;99.90;;;;;;5069401;28;20192;-46
2021/09/04 09:53:19;;;;;;;5.65;3.40;;;18.40;99.90;;;;;;5051286;28;20037;-45
2021/09/04 09:55:47;;;;;;;8.65;3.95;;;18.60;99.90;;;;;;5048927;28;20478;-45
2021/09/04 09:58:14;;;;;;;6.95;3.05;;;18.80;99.90;;;;;;5046949;28;20047;-45
2021/09/04 10:00:41;;;;;;;6.53;3.55;;;18.70;99.90;;;;;;5049255;28;20391;-45
2021/09/04 10:03:08;;;;;;;8.32;3.47;;;19.00;99.90;;;;;;5049117;28;20079;-45
2021/09/04 10:05:34;;;;;;;6.15;3.25;;;19.30;99.60;;;;;;5048887;28;20027;-45
2021/09/04 10:08:00;;;;;;;5.35;3.58;;;19.60;99.90;;;;;;5048449;28;20522;-45
2021/09/04 10:10:28;;;;;;;6.40;3.38;;;19.70;99.00;;;;;;5048520;28;20078;-46
2021/09/04 10:12:54;;;;;;;10.18;3.75;;;19.80;99.00;;;;;;5051636;28;20037;-46
2021/09/04 10:15:23;;;;;;;6.72;3.50;;;20.10;99.30;;;;;;5060716;28;20029;-47
2021/09/04 10:17:51;;;;;;;7.50;3.78;;;20.10;96.90;;;;;;5067550;28;20124;-45
2021/09/04 10:20:17;;;;;;;6.10;3.58;;;19.90;98.00;;;;;;5068295;28;20078;-54
2021/09/04 10:22:44;;;;;;;8.52;3.30;;;19.80;97.80;;;;;;5069118;28;20021;-49
2021/09/04 10:25:18;;;;;;;5.88;3.58;;;19.50;97.70;;;;;;5068614;28;20363;-45
2021/09/04 10:27:46;;;;;;;7.88;3.28;;;19.30;98.00;;;;;;5068349;28;20085;-48
2021/09/04 10:30:21;;;;;;;8.02;3.30;;;19.10;98.20;;;;;;5068419;28;20063;-45
2021/09/04 10:33:18;;;;;;;7.35;4.00;;;19.10;98.30;;;;;;5068688;28;20033;-46
2021/09/04 10:35:45;;;;;;;7.43;3.85;;;19.10;98.70;;;;;;5068720;28;20070;-50
2021/09/04 10:38:25;;;;;;;4.88;3.38;;;19.10;98.80;;;;;;5066521;28;20028;-46
2021/09/04 10:41:12;;;;;;;8.65;3.55;;;19.10;98.20;;;;;;5039367;28;20025;-45
2021/09/04 10:43:42;;;;;;;7.55;3.47;;;19.10;98.20;;;;;;5044378;28;20021;-45
2021/09/04 10:46:11;;;;;;;11.63;4.03;;;19.20;98.40;;;;;;5060351;28;20059;-46
2021/09/04 10:48:37;;;;;;;5.82;3.45;;;19.20;97.90;;;;;;5061407;28;20060;-48
2021/09/04 10:51:08;;;;;;;9.05;3.80;;;19.30;98.60;;;;;;5048347;28;20039;-47
2021/09/04 10:53:44;;;;;;;10.88;3.80;;;19.50;98.50;;;;;;5047788;28;20021;-46
2021/09/04 10:56:37;;;;;;;8.63;3.72;;;19.40;98.20;;;;;;5048183;28;20096;-48
2021/09/04 10:59:03;;;;;;;5.93;3.38;;;19.80;96.90;;;;;;5047020;28;20542;-47
2021/09/04 11:01:48;;;;;;;8.32;3.47;;;20.40;97.00;;;;;;5048145;28;20310;-46
2021/09/04 11:04:14;;;;;;;5.60;3.22;;;20.70;95.20;;;;;;5049785;28;20440;-46
2021/09/04 11:06:47;;;;;;;6.38;3.47;;;20.80;94.90;;;;;;5049039;28;20037;-49
2021/09/04 11:09:13;;;;;;;7.40;3.53;;;20.70;95.00;;;;;;5041047;28;20360;-48
2021/09/04 11:11:39;;;;;;;7.80;3.70;;;20.80;97.20;;;;;;5037901;28;20088;-46
2021/09/04 11:14:20;;;;;;;8.02;3.30;;;20.80;95.60;;;;;;5045947;28;20024;-48
2021/09/04 11:16:54;;;;;;;6.65;3.40;;;20.50;96.30;;;;;;5051724;28;20052;-47
2021/09/04 11:19:31;;;;;;;7.18;3.72;;;20.60;96.70;;;;;;5042579;28;20040;-46
2021/09/04 11:22:12;;;;;;;10.63;4.10;;;20.70;95.50;;;;;;5044821;28;20028;-46
2021/09/04 11:24:43;;;;;;;8.90;4.43;;;20.50;95.60;;;;;;5048309;28;20025;-46
2021/09/04 11:27:20;;;;;;;6.13;3.63;;;20.60;95.80;;;;;;5047513;28;20056;-46
2021/09/04 11:29:47;;;;;;;8.02;3.67;;;20.70;95.50;;;;;;5047516;28;20168;-47
2021/09/04 11:32:14;;;;;;;4.85;3.13;;;20.90;94.00;;;;;;5047523;28;20387;-46
2021/09/04 11:34:52;;;;;;;9.05;3.97;;;20.80;94.40;;;;;;5047349;28;20035;-47
2021/09/04 11:37:27;;;;;;;7.57;3.53;;;20.80;94.80;;;;;;5046097;28;20047;-47
2021/09/04 11:40:25;;;;;;;13.70;4.47;;;20.80;94.20;;;;;;5045717;28;20530;-46
2021/09/04 11:42:51;;;;;;;9.65;4.53;;;20.80;94.60;;;;;;5045835;28;20116;-46
2021/09/04 11:45:22;;;;;;;8.30;4.15;;;20.70;93.90;;;;;;5048257;28;20295;-47
2021/09/04 11:47:52;;;;;;;7.47;3.63;;;20.80;94.70;;;;;;5063470;28;20020;-46
2021/09/04 11:50:26;;;;;;;9.68;3.65;;;21.20;93.70;;;;;;5059685;28;20460;-46
2021/09/04 11:52:52;;;;;;;8.48;3.63;;;21.60;92.50;;;;;;5066889;28;20429;-49
2021/09/04 11:55:29;;;;;;;5.07;3.47;;;21.60;92.10;;;;;;5070584;28;20427;-47
2021/09/04 11:57:56;;;;;;;8.25;4.05;;;22.10;94.20;;;;;;5070909;28;20314;-48
2021/09/04 12:00:24;;;;;;;6.30;3.63;;;22.20;92.00;;;;;;5070793;28;20031;-46
2021/09/04 12:02:55;;;;;;;6.03;3.53;;;22.20;91.60;;;;;;5070060;28;20505;-47
2021/09/04 12:05:23;;;;;;;8.40;3.85;;;22.30;91.60;;;;;;5071587;28;20032;-48
2021/09/04 12:07:51;;;;;;;6.97;3.40;;;22.10;90.50;;;;;;5070458;28;20374;-48
2021/09/04 12:10:22;;;;;;;7.88;4.13;;;21.80;91.90;;;;;;5071708;28;20039;-48
2021/09/04 12:12:52;;;;;;;5.93;3.40;;;21.70;92.20;;;;;;5069059;28;20509;-46
2021/09/04 12:15:18;;;;;;;6.82;3.95;;;22.20;91.30;;;;;;5051878;28;20028;-46
2021/09/04 12:17:54;;;;;;;10.57;4.13;;;22.10;90.70;;;;;;5067391;28;20532;-47
2021/09/04 12:20:28;;;;;;;7.97;3.70;;;21.90;91.10;;;;;;5065069;28;20037;-49
2021/09/04 12:22:59;;;;;;;6.47;4.07;;;21.70;91.10;;;;;;5039604;28;20028;-48
2021/09/04 12:25:32;;;;;;;9.93;4.00;;;21.50;91.80;;;;;;5042195;28;20066;-45
2021/09/04 12:28:04;;;;;;;8.07;4.10;;;21.30;92.80;;;;;;5062164;28;20028;-47
2021/09/04 12:30:30;;;;;;;9.15;4.50;;;21.10;92.60;;;;;;5057910;28;20032;-46
2021/09/04 12:33:08;;;;;;;5.28;3.28;;;21.10;92.30;;;;;;5040622;28;20030;-48
2021/09/04 12:35:53;;;;;;;10.43;3.75;;;21.10;93.00;;;;;;5041044;28;20034;-46
2021/09/04 12:38:30;;;;;;;10.52;4.38;;;21.30;92.00;;;;;;5039104;28;20037;-47